createdAt,value
2023-01-05T00:02:24.489Z,18.8
2023-01-05T00:07:31.531Z,18.8
2023-01-05T00:12:38.952Z,18.8
2023-01-05T00:17:45.551Z,18.8
2023-01-05T00:23:07.940Z,18.8
2023-01-05T00:28:22.188Z,18.8
2023-01-05T00:33:45.001Z,18.8
2023-01-05T00:38:35.792Z,18.8
2023-01-05T00:43:28.241Z,18.8
2023-01-05T00:48:20.055Z,18.8
2023-01-05T00:53:27.058Z,18.8
2023-01-05T00:58:18.773Z,18.8
2023-01-05T01:03:11.517Z,18.8
2023-01-05T01:08:18.107Z,18.8
2023-01-05T01:13:25.091Z,18.8
2023-01-05T01:18:32.810Z,18.8
2023-01-05T01:23:54.157Z,18.8
2023-01-05T01:29:16.867Z,18.8
2023-01-05T01:44:06.213Z,18.8
2023-01-05T01:49:14.125Z,18.8
2023-01-05T01:54:36.737Z,18.8
2023-01-05T01:59:43.548Z,18.8
2023-01-05T02:14:22.329Z,18.8
2023-01-05T02:24:27.860Z,18.8
2023-01-05T03:27:26.801Z,18.6
2023-01-05T04:01:45.855Z,18.6
2023-01-05T04:06:42.468Z,18.6
2023-01-05T04:21:32.957Z,18.6
2023-01-05T04:26:44.474Z,18.6
2023-01-05T04:31:52.179Z,18.6
2023-01-05T04:36:59.019Z,18.6
2023-01-05T04:42:06.115Z,18.6
2023-01-05T04:47:14.084Z,18.6
2023-01-05T04:52:20.952Z,18.6
2023-01-05T04:57:12.759Z,18.6
2023-01-05T05:45:48.071Z,18.6
2023-01-05T05:50:41.784Z,18.6
2023-01-05T05:55:32.333Z,18.6
2023-01-05T06:00:47.543Z,18.6
2023-01-05T06:05:55.835Z,18.6
2023-01-05T06:11:18.658Z,18.6
2023-01-05T06:26:58.530Z,18.6
2023-01-05T06:32:21.607Z,18.6
2023-01-05T06:37:49.742Z,18.6
2023-01-05T06:43:13.274Z,18.6
2023-01-05T06:48:36.486Z,18.6
2023-01-05T06:54:01.598Z,18.6
2023-01-05T06:59:24.661Z,18.6
2023-01-05T07:04:48.072Z,18.6
2023-01-05T07:10:15.059Z,18.6
2023-01-05T07:15:43.829Z,18.6
2023-01-05T07:21:07.372Z,18.6
2023-01-05T07:26:30.213Z,18.6
2023-01-05T07:31:58.695Z,18.6
2023-01-05T07:37:30.516Z,18.6
2023-01-05T07:42:52.991Z,18.6
2023-01-05T07:48:00.533Z,18.3
2023-01-05T07:53:14.917Z,36.1
2023-01-05T07:58:37.808Z,30.9
2023-01-05T08:04:01.736Z,28.1
2023-01-05T08:09:14.130Z,29.8
2023-01-05T08:14:36.814Z,38.6
2023-01-05T08:20:04.177Z,32.9
2023-01-05T08:25:29.255Z,34.7
2023-01-05T08:30:53.451Z,34.5
2023-01-05T08:36:02.332Z,34.3
2023-01-05T08:41:25.343Z,35.4
2023-01-05T08:46:52.637Z,36.6
2023-01-05T08:52:18.402Z,38.4
2023-01-05T08:57:45.799Z,39.3
2023-01-05T09:03:15.589Z,40.2
2023-01-05T09:08:38.222Z,41.4
2023-01-05T09:14:01.591Z,42.5
2023-01-05T09:19:54.215Z,43.9
2023-01-05T09:25:01.508Z,44.9
2023-01-05T09:30:09.081Z,45.6
2023-01-05T09:35:39.609Z,45.5
2023-01-05T09:41:05.431Z,45.3
2023-01-05T09:46:30.096Z,45.5
2023-01-05T09:51:53.705Z,45.4
2023-01-05T09:57:56.898Z,45.8
2023-01-05T10:04:01.530Z,45.5
2023-01-05T10:09:25.821Z,46.3
2023-01-05T10:14:48.577Z,46.3
2023-01-05T10:20:51.249Z,45.3
2023-01-05T10:26:20.365Z,45.3
2023-01-05T10:32:26.393Z,45.9
2023-01-05T10:39:43.560Z,47.4
2023-01-05T10:45:06.944Z,49.3
2023-01-05T10:50:55.935Z,49.9
2023-01-05T10:56:24.658Z,49.4
2023-01-05T11:01:53.773Z,49.8
2023-01-05T11:08:01.698Z,51.4
2023-01-05T11:13:25.993Z,50.2
2023-01-05T11:18:53.844Z,48.9
2023-01-05T11:24:20.141Z,49.9
2023-01-05T11:29:34.720Z,49.6
2023-01-05T11:34:48.587Z,49.6
2023-01-05T11:40:17.341Z,47.9
2023-01-05T11:45:44.486Z,48.3
2023-01-05T11:51:16.336Z,43.2
2023-01-05T11:56:08.408Z,39.6
2023-01-05T12:01:32.887Z,52.9
2023-01-05T12:06:41.763Z,51.3
2023-01-05T12:11:54.033Z,44.9
2023-01-05T12:17:25.704Z,41
2023-01-05T12:22:35.862Z,37.8
2023-01-05T12:27:43.465Z,35.4
2023-01-05T12:37:12.788Z,32.2
2023-01-05T12:42:25.919Z,30.8
2023-01-05T12:47:51.273Z,29.8
2023-01-05T12:52:59.598Z,28.7
2023-01-05T12:57:51.628Z,28
2023-01-05T13:03:15.338Z,27.3
2023-01-05T13:08:20.892Z,26.6
2023-01-05T13:13:15.985Z,26.1
2023-01-05T13:18:28.281Z,25.6
2023-01-05T13:23:19.738Z,25.3
2023-01-05T13:28:47.321Z,24.9
2023-01-05T13:33:56.477Z,24.6
2023-01-05T13:39:18.766Z,24.3
2023-01-05T13:44:42.542Z,24
2023-01-05T13:50:28.561Z,23.8
2023-01-05T13:56:01.362Z,23.5
2023-01-05T14:01:53.955Z,23.3
2023-01-05T14:07:17.828Z,23.1
2023-01-05T14:12:40.614Z,22.9
2023-01-05T14:17:48.789Z,22.8
2023-01-05T14:23:15.034Z,22.6
2023-01-05T14:28:24.797Z,22.4
2023-01-05T14:33:48.631Z,22.3
2023-01-05T14:38:56.424Z,22.2
2023-01-05T14:44:09.534Z,22.1
2023-01-05T14:49:17.748Z,22.1
2023-01-05T14:54:41.312Z,21.9
2023-01-05T15:00:29.228Z,21.9
2023-01-05T15:05:57.311Z,21.8
2023-01-05T15:11:20.546Z,21.7
2023-01-05T15:16:49.520Z,21.6
2023-01-05T15:22:03.301Z,21.6
2023-01-05T15:27:39.719Z,21.5
2023-01-05T15:32:46.922Z,21.4
2023-01-05T15:37:55.432Z,21.4
2023-01-05T15:43:03.910Z,21.4
2023-01-05T15:48:11.065Z,21.3
2023-01-05T15:53:03.913Z,21.3
2023-01-05T15:58:27.169Z,21.3
2023-01-05T16:03:34.896Z,21.2
2023-01-05T16:08:44.063Z,21.2
2023-01-05T16:24:40.702Z,21.1
2023-01-05T16:29:48.921Z,21.1
2023-01-05T16:35:12.181Z,21
2023-01-05T16:40:20.835Z,21
2023-01-05T16:45:13.175Z,20.9
2023-01-05T16:50:31.036Z,20.9
2023-01-05T16:56:00.907Z,20.9
2023-01-05T17:01:08.998Z,20.9
2023-01-05T17:06:16.011Z,20.9
2023-01-05T17:11:23.394Z,20.9
2023-01-05T17:16:31.996Z,20.8
2023-01-05T17:21:40.580Z,20.8
2023-01-05T17:27:04.538Z,20.8
2023-01-05T17:31:57.336Z,20.8
2023-01-05T17:37:05.731Z,20.8
2023-01-05T17:42:14.857Z,20.7
2023-01-05T17:46:51.619Z,20.7
2023-01-05T17:51:44.046Z,20.6
2023-01-05T17:57:10.553Z,20.6
2023-01-05T18:02:35.002Z,20.6
2023-01-05T18:07:59.368Z,20.6
2023-01-05T18:13:23.923Z,20.6
2023-01-05T18:18:47.977Z,20.6
2023-01-05T18:24:11.239Z,20.5
2023-01-05T18:29:34.688Z,20.4
2023-01-05T18:34:59.408Z,20.4
2023-01-05T18:40:32.554Z,20.4
2023-01-05T18:46:13.783Z,20.4
2023-01-05T18:51:23.502Z,20.4
2023-01-05T18:56:48.023Z,20.3
2023-01-05T19:01:56.627Z,20.3
2023-01-05T19:07:23.316Z,20.3
2023-01-05T19:12:46.095Z,20.3
2023-01-05T19:18:09.911Z,20.3
2023-01-05T19:23:18.625Z,20.3
2023-01-05T19:28:27.808Z,20.2
2023-01-05T19:33:51.470Z,20.1
2023-01-05T19:39:15.787Z,20.1
2023-01-05T19:44:40.576Z,20.1
2023-01-05T19:50:07.170Z,20.1
2023-01-05T19:55:15.746Z,20.1
2023-01-05T20:00:40.774Z,20.1
2023-01-05T20:05:49.221Z,20.1
2023-01-05T20:10:58.556Z,20.1
2023-01-05T20:16:31.765Z,20
2023-01-05T20:21:22.775Z,20
2023-01-05T20:26:32.699Z,20
2023-01-05T20:31:40.804Z,20
2023-01-05T20:37:03.643Z,19.9
2023-01-05T20:42:28.843Z,19.9
2023-01-05T20:48:03.991Z,19.9
2023-01-05T20:53:27.522Z,19.9
2023-01-05T20:58:50.927Z,19.9
2023-01-05T21:04:42.889Z,19.9
2023-01-05T21:09:37.377Z,19.9
2023-01-05T21:15:18.924Z,19.9
2023-01-05T21:20:26.814Z,19.9
2023-01-05T21:26:23.731Z,19.9
2023-01-05T21:31:32.052Z,19.9
2023-01-05T21:36:39.668Z,19.9
2023-01-05T21:42:28.977Z,19.9
2023-01-05T21:47:38.741Z,19.9
2023-01-05T21:52:46.181Z,19.9
2023-01-05T21:57:53.652Z,20
2023-01-05T22:03:01.791Z,20
2023-01-05T22:08:09.889Z,20
2023-01-05T22:13:17.889Z,19.9
2023-01-05T22:18:42.018Z,20
2023-01-05T22:24:04.776Z,19.9
2023-01-05T22:29:12.326Z,19.9
2023-01-05T22:34:21.963Z,19.9
2023-01-05T22:39:29.419Z,19.9
2023-01-05T22:44:21.057Z,19.9
2023-01-05T22:49:28.658Z,19.9
2023-01-05T22:54:51.813Z,19.9
2023-01-05T23:00:00.679Z,19.9
2023-01-05T23:05:09.207Z,19.9
2023-01-05T23:09:29.443Z,19.9
2023-01-05T23:14:36.536Z,19.9
2023-01-05T23:19:59.292Z,19.9
2023-01-05T23:25:07.365Z,19.8
2023-01-05T23:30:16.317Z,19.8
2023-01-05T23:35:23.978Z,19.8
2023-01-05T23:40:47.294Z,19.8
2023-01-05T23:45:54.795Z,19.8
2023-01-05T23:50:46.751Z,19.8
2023-01-05T23:56:11.279Z,19.8
